createdAt,value
2023-05-08T00:00:28.586Z,48.43
2023-05-08T00:05:21.874Z,48.35
2023-05-08T00:10:15.169Z,48.13
2023-05-08T00:15:11.274Z,48.27
2023-05-08T00:20:04.551Z,48.46
2023-05-08T00:24:57.541Z,48.27
2023-05-08T00:29:50.917Z,47.83
2023-05-08T00:34:45.422Z,48.10
2023-05-08T00:39:38.480Z,48.15
2023-05-08T00:44:31.671Z,48.01
2023-05-08T00:49:25.253Z,47.95
2023-05-08T00:54:20.622Z,48.65
2023-05-08T00:59:16.239Z,47.56
2023-05-08T01:04:09.501Z,47.06
2023-05-08T01:09:02.941Z,47.29
2023-05-08T01:14:09.027Z,47.41
2023-05-08T01:19:08.558Z,47.82
2023-05-08T01:24:26.426Z,48.48
2023-05-08T01:30:01.138Z,47.86
2023-05-08T01:35:04.570Z,48.12
2023-05-08T01:40:10.051Z,48.20
2023-05-08T01:45:09.144Z,48.22
2023-05-08T01:50:07.445Z,48.65
2023-05-08T01:55:04.693Z,48.03
2023-05-08T02:00:01.723Z,48.26
2023-05-08T02:04:55.925Z,48.72
2023-05-08T02:09:52.614Z,48.48
2023-05-08T02:14:49.235Z,48.32
2023-05-08T02:19:43.982Z,49.47
2023-05-08T02:24:38.290Z,49.20
2023-05-08T02:29:33.667Z,49.93
2023-05-08T02:34:28.155Z,49.39
2023-05-08T02:39:23.126Z,51.36
2023-05-08T02:44:17.175Z,51.65
2023-05-08T02:49:21.666Z,52.71
2023-05-08T02:54:20.002Z,49.26
2023-05-08T02:59:20.400Z,48.33
2023-05-08T03:04:25.690Z,48.93
2023-05-08T03:09:21.575Z,49.31
2023-05-08T03:14:19.064Z,47.92
2023-05-08T03:19:23.155Z,48.59
2023-05-08T03:24:19.444Z,49.42
2023-05-08T03:29:15.762Z,48.84
2023-05-08T03:34:11.038Z,48.31
2023-05-08T03:39:07.756Z,48.53
2023-05-08T03:44:03.559Z,48.92
2023-05-08T03:48:57.083Z,49.32
2023-05-08T03:53:50.471Z,50.26
2023-05-08T03:58:51.879Z,51.39
2023-05-08T04:03:57.603Z,52.12
2023-05-08T04:08:56.668Z,51.30
2023-05-08T04:13:58.715Z,52.49
2023-05-08T04:18:59.523Z,53.74
2023-05-08T04:23:54.508Z,54.60
2023-05-08T04:28:47.871Z,54.44
2023-05-08T04:33:44.123Z,55.04
2023-05-08T04:38:38.162Z,53.71
2023-05-08T04:43:34.093Z,53.44
2023-05-08T04:48:27.675Z,53.61
2023-05-08T04:53:22.178Z,53.12
2023-05-08T04:58:15.433Z,53.53
2023-05-08T05:03:08.772Z,51.58
2023-05-08T05:08:01.927Z,52.40
2023-05-08T05:12:57.076Z,52.47
2023-05-08T05:17:50.442Z,52.67
2023-05-08T05:22:43.666Z,52.64
2023-05-08T05:27:37.674Z,52.11
2023-05-08T05:32:33.906Z,52.48
2023-05-08T05:37:27.552Z,52.56
2023-05-08T05:42:21.692Z,51.04
2023-05-08T05:47:14.806Z,50.80
2023-05-08T05:52:09.692Z,51.17
2023-05-08T05:57:03.375Z,51.15
2023-05-08T06:01:56.651Z,48.64
2023-05-08T06:06:49.923Z,48.65
2023-05-08T06:11:44.470Z,49.84
2023-05-08T06:16:37.741Z,50.36
2023-05-08T06:21:31.281Z,49.70
2023-05-08T06:26:24.662Z,48.94
2023-05-08T06:31:19.484Z,48.81
2023-05-08T06:36:13.154Z,51.18
2023-05-08T06:41:06.456Z,48.76
2023-05-08T06:45:59.575Z,48.72
2023-05-08T06:50:54.054Z,47.10
2023-05-08T06:55:47.445Z,47.66
2023-05-08T07:00:40.593Z,47.63
2023-05-08T07:05:33.795Z,47.96
2023-05-08T07:10:28.260Z,48.83
2023-05-08T07:15:26.642Z,48.28
2023-05-08T07:20:20.431Z,46.89
2023-05-08T07:25:14.004Z,46.62
2023-05-08T07:30:10.781Z,45.89
2023-05-08T07:35:06.838Z,44.91
2023-05-08T07:40:00.747Z,43.36
2023-05-08T07:44:55.151Z,44.74
2023-05-08T07:49:49.907Z,44.39
2023-05-08T07:54:43.966Z,44.81
2023-05-08T07:59:37.177Z,44.81
2023-05-08T08:04:30.806Z,43.71
2023-05-08T08:09:25.380Z,43.56
2023-05-08T08:14:18.582Z,43.59
2023-05-08T08:19:11.851Z,44.14
2023-05-08T08:24:05.345Z,42.27
2023-05-08T08:28:59.837Z,43.28
2023-05-08T08:33:53.175Z,44.06
2023-05-08T08:38:46.491Z,45.06
2023-05-08T08:43:43.372Z,45.52
2023-05-08T08:48:39.480Z,45.62
2023-05-08T08:53:36.976Z,45.54
2023-05-08T08:58:36.575Z,45.36
2023-05-08T09:03:32.796Z,45.98
2023-05-08T09:08:27.825Z,47.59
2023-05-08T09:13:21.143Z,46.86
2023-05-08T09:18:14.282Z,47.17
2023-05-08T09:23:07.900Z,46.62
2023-05-08T09:28:17.246Z,46.73
2023-05-08T09:33:10.499Z,48.38
2023-05-08T09:38:03.701Z,49.51
2023-05-08T09:42:56.722Z,50.24
2023-05-08T09:47:51.293Z,50.67
2023-05-08T09:52:48.872Z,50.70
2023-05-08T09:57:53.674Z,48.85
2023-05-08T10:02:58.344Z,48.63
2023-05-08T10:07:51.837Z,47.55
2023-05-08T10:12:45.882Z,47.80
2023-05-08T10:17:45.356Z,48.89
2023-05-08T10:22:44.586Z,49.47
2023-05-08T10:27:46.188Z,50.20
2023-05-08T10:32:46.099Z,52.22
2023-05-08T10:37:42.934Z,53.81
2023-05-08T10:42:36.602Z,54.35
2023-05-08T10:47:45.025Z,54.93
2023-05-08T10:52:48.845Z,57.02
2023-05-08T10:57:42.215Z,58.43
2023-05-08T11:02:37.203Z,59.03
2023-05-08T11:07:55.163Z,59.52
2023-05-08T11:12:51.563Z,60.50
2023-05-08T11:17:54.690Z,60.52
2023-05-08T11:22:50.103Z,60.73
2023-05-08T11:28:13.988Z,59.35
2023-05-08T11:33:15.569Z,59.53
2023-05-08T11:38:34.134Z,61.87
2023-05-08T11:43:58.448Z,64.48
2023-05-08T11:49:00.185Z,66.56
2023-05-08T11:53:54.676Z,67.87
2023-05-08T11:58:47.724Z,70.96
2023-05-08T12:03:40.882Z,73.16
2023-05-08T12:08:34.201Z,74.37
2023-05-08T12:13:30.211Z,76.34
2023-05-08T12:18:24.949Z,78.53
2023-05-08T12:23:18.682Z,80.48
2023-05-08T12:28:12.053Z,82.24
2023-05-08T12:33:07.567Z,84.26
2023-05-08T12:38:03.515Z,85.55
2023-05-08T12:42:56.664Z,86.20
2023-05-08T12:47:50.778Z,87.90
2023-05-08T12:52:45.801Z,90.74
2023-05-08T12:57:38.870Z,91.17
2023-05-08T13:02:32.135Z,92.06
2023-05-08T13:07:25.521Z,93.44
2023-05-08T13:12:19.990Z,94.33
2023-05-08T13:17:18.483Z,95.70
2023-05-08T13:22:11.593Z,95.39
2023-05-08T13:27:04.958Z,95.89
2023-05-08T13:31:59.997Z,96.25
2023-05-08T13:36:53.324Z,97.18
2023-05-08T13:41:48.897Z,97.79
2023-05-08T13:46:41.922Z,98.52
2023-05-08T13:51:37.584Z,98.05
2023-05-08T13:56:30.660Z,97.32
2023-05-08T14:01:26.881Z,98.25
2023-05-08T14:06:20.607Z,99.35
2023-05-08T14:11:14.997Z,99.33
2023-05-08T14:16:10.527Z,98.86
2023-05-08T14:21:03.705Z,99.09
2023-05-08T14:25:56.899Z,100.00
2023-05-08T14:30:51.420Z,100.00
2023-05-08T14:35:45.810Z,100.00
2023-05-08T14:40:38.899Z,100.00
2023-05-08T14:45:32.086Z,100.00
2023-05-08T14:50:27.873Z,100.00
2023-05-08T14:55:21.584Z,100.00
2023-05-08T15:00:16.684Z,100.00
2023-05-08T15:05:18.872Z,100.00
2023-05-08T15:10:14.278Z,100.00
2023-05-08T15:15:08.436Z,100.00
2023-05-08T15:20:01.452Z,100.00
2023-05-08T15:24:54.497Z,100.00
2023-05-08T15:29:50.457Z,100.00
2023-05-08T15:34:43.522Z,100.00
2023-05-08T15:39:37.525Z,100.00
2023-05-08T15:44:42.110Z,100.00
2023-05-08T15:49:45.133Z,100.00
2023-05-08T15:54:38.849Z,100.00
2023-05-08T15:59:31.955Z,100.00
2023-05-08T16:04:25.000Z,100.00
2023-05-08T16:09:19.412Z,100.00
2023-05-08T16:14:12.437Z,100.00
2023-05-08T16:19:05.599Z,100.00
2023-05-08T16:23:58.877Z,100.00
2023-05-08T16:28:53.379Z,100.00
2023-05-08T16:33:46.508Z,100.00
2023-05-08T16:38:40.079Z,100.00
2023-05-08T16:43:33.783Z,100.00
2023-05-08T16:48:29.058Z,100.00
2023-05-08T16:53:22.167Z,100.00
2023-05-08T16:58:16.021Z,100.00
2023-05-08T17:03:09.149Z,100.00
2023-05-08T17:08:03.972Z,100.00
2023-05-08T17:12:56.997Z,100.00
2023-05-08T17:17:50.682Z,100.00
2023-05-08T17:22:43.712Z,100.00
2023-05-08T17:27:38.595Z,100.00
2023-05-08T17:32:32.114Z,100.00
2023-05-08T17:37:25.351Z,100.00
2023-05-08T17:42:18.488Z,100.00
2023-05-08T17:47:12.991Z,100.00
2023-05-08T17:52:06.244Z,100.00
2023-05-08T17:56:59.389Z,100.00
2023-05-08T18:01:52.433Z,100.00
2023-05-08T18:06:49.172Z,100.00
2023-05-08T18:11:45.036Z,100.00
2023-05-08T18:16:38.231Z,100.00
2023-05-08T18:21:31.677Z,100.00
2023-05-08T18:26:26.154Z,100.00
2023-05-08T18:31:19.235Z,100.00
2023-05-08T18:36:12.466Z,100.00
2023-05-08T18:41:07.142Z,100.00
2023-05-08T18:46:05.076Z,100.00
2023-05-08T18:50:58.810Z,100.00
2023-05-08T18:55:52.961Z,100.00
2023-05-08T19:00:46.380Z,100.00
2023-05-08T19:05:42.053Z,100.00
2023-05-08T19:10:35.393Z,100.00
2023-05-08T19:15:31.124Z,100.00
2023-05-08T19:20:24.406Z,100.00
2023-05-08T19:25:19.146Z,100.00
2023-05-08T19:30:13.389Z,100.00
2023-05-08T19:35:08.324Z,100.00
2023-05-08T19:40:01.470Z,100.00
2023-05-08T19:44:55.947Z,100.00
2023-05-08T19:49:50.051Z,100.00
2023-05-08T19:54:47.651Z,100.00
2023-05-08T19:59:40.866Z,100.00
2023-05-08T20:04:48.561Z,100.00
2023-05-08T20:11:10.832Z,100.00
2023-05-08T20:28:29.612Z,100.00
2023-05-08T20:34:01.601Z,100.00
2023-05-08T20:45:46.643Z,100.00
2023-05-08T20:50:39.801Z,100.00
2023-05-08T20:55:32.912Z,100.00
2023-05-08T21:00:26.147Z,100.00
2023-05-08T21:05:23.710Z,100.00
2023-05-08T21:10:16.918Z,100.00
2023-05-08T21:15:10.333Z,100.00
2023-05-08T21:20:03.450Z,100.00
2023-05-08T21:24:57.922Z,100.00
2023-05-08T21:29:51.009Z,100.00
2023-05-08T21:34:44.057Z,100.00
2023-05-08T21:39:37.107Z,100.00
2023-05-08T21:44:31.714Z,100.00
2023-05-08T21:49:24.946Z,100.00
2023-05-08T21:54:18.108Z,100.00
2023-05-08T21:59:11.217Z,100.00
2023-05-08T22:04:05.756Z,100.00
2023-05-08T22:08:59.036Z,100.00
2023-05-08T22:13:52.206Z,100.00
2023-05-08T22:18:45.268Z,100.00
2023-05-08T22:23:39.780Z,100.00
2023-05-08T22:28:33.021Z,100.00
2023-05-08T22:33:26.153Z,100.00
2023-05-08T22:38:21.244Z,100.00
2023-05-08T22:43:15.851Z,100.00
2023-05-08T22:48:09.580Z,100.00
2023-05-08T22:53:07.895Z,100.00
2023-05-08T22:58:01.414Z,100.00
2023-05-08T23:02:56.564Z,100.00
2023-05-08T23:07:49.964Z,100.00
2023-05-08T23:12:43.147Z,100.00
2023-05-08T23:17:36.761Z,100.00
2023-05-08T23:22:31.324Z,100.00
2023-05-08T23:27:24.495Z,100.00
2023-05-08T23:32:17.816Z,100.00
2023-05-08T23:37:10.925Z,100.00
2023-05-08T23:42:07.870Z,100.00
2023-05-08T23:47:01.326Z,100.00
2023-05-08T23:51:54.541Z,100.00
2023-05-08T23:56:47.632Z,100.00
